createdAt,value
2018-12-05T00:00:19.677Z,10.50
2018-12-05T00:02:48.064Z,10.83
2018-12-05T00:05:16.884Z,8.27
2018-12-05T00:07:45.256Z,7.73
2018-12-05T00:10:13.905Z,6.17
2018-12-05T00:12:42.248Z,8.40
2018-12-05T00:15:10.756Z,7.53
2018-12-05T00:17:39.166Z,9.97
2018-12-05T00:20:07.578Z,9.33
2018-12-05T00:22:36.022Z,12.97
2018-12-05T00:25:04.702Z,8.73
2018-12-05T00:27:32.952Z,7.57
2018-12-05T00:30:01.263Z,9.43
2018-12-05T00:32:29.636Z,7.23
2018-12-05T00:34:58.008Z,10.90
2018-12-05T00:37:26.374Z,7.97
2018-12-05T00:39:54.705Z,10.17
2018-12-05T00:42:23.024Z,7.03
2018-12-05T00:44:51.323Z,5.37
2018-12-05T00:47:19.732Z,17.07
2018-12-05T00:49:48.078Z,11.00
2018-12-05T00:52:16.377Z,9.80
2018-12-05T00:54:45.933Z,5.17
2018-12-05T00:57:14.671Z,6.60
2018-12-05T00:59:43.314Z,6.30
2018-12-05T01:02:11.996Z,7.90
2018-12-05T01:04:40.423Z,10.73
2018-12-05T01:07:08.900Z,10.53
2018-12-05T01:09:40.603Z,7.60
2018-12-05T01:12:10.620Z,6.97
2018-12-05T01:14:39.038Z,7.80
2018-12-05T01:17:07.362Z,7.70
2018-12-05T01:19:35.752Z,10.57
2018-12-05T01:22:04.240Z,8.27
2018-12-05T01:24:32.738Z,8.53
2018-12-05T01:27:01.152Z,10.43
2018-12-05T01:29:29.625Z,10.70
2018-12-05T01:32:04.598Z,10.27
2018-12-05T01:34:33.779Z,6.13
2018-12-05T01:37:02.263Z,7.70
2018-12-05T01:39:30.583Z,5.73
2018-12-05T01:41:58.990Z,7.93
2018-12-05T01:44:34.676Z,11.87
2018-12-05T01:47:03.284Z,9.30
2018-12-05T01:49:31.648Z,5.53
2018-12-05T01:52:00.391Z,9.43
2018-12-05T01:54:28.747Z,8.17
2018-12-05T01:56:57.353Z,9.70
2018-12-05T01:59:25.821Z,8.00
2018-12-05T02:01:54.165Z,8.00
2018-12-05T02:04:22.519Z,6.50
2018-12-05T02:06:50.989Z,7.30
2018-12-05T02:09:19.465Z,7.03
2018-12-05T02:11:47.827Z,7.60
2018-12-05T02:14:16.160Z,6.63
2018-12-05T02:16:44.601Z,13.07
2018-12-05T02:19:12.879Z,6.97
2018-12-05T02:21:41.364Z,8.10
2018-12-05T02:24:09.771Z,7.00
2018-12-05T02:26:38.348Z,9.80
2018-12-05T02:29:06.717Z,6.77
2018-12-05T02:31:35.073Z,8.20
2018-12-05T02:34:03.581Z,8.07
2018-12-05T02:36:32.003Z,13.30
2018-12-05T02:39:00.559Z,12.53
2018-12-05T02:41:29.020Z,7.33
2018-12-05T02:43:57.371Z,8.13
2018-12-05T02:46:25.690Z,12.00
2018-12-05T02:48:54.241Z,9.37
2018-12-05T02:51:22.550Z,10.63
2018-12-05T02:53:51.031Z,10.87
2018-12-05T02:56:19.481Z,13.90
2018-12-05T02:58:47.977Z,8.40
2018-12-05T03:01:16.361Z,9.10
2018-12-05T03:03:44.745Z,6.70
2018-12-05T03:06:13.264Z,9.63
2018-12-05T03:08:41.910Z,10.03
2018-12-05T03:11:10.233Z,8.40
2018-12-05T03:13:38.526Z,14.03
2018-12-05T03:16:06.913Z,8.40
2018-12-05T03:18:35.320Z,9.13
2018-12-05T03:21:03.681Z,9.23
2018-12-05T03:26:10.261Z,11.47
2018-12-05T03:28:38.608Z,6.90
2018-12-05T03:31:07.008Z,8.63
2018-12-05T03:33:35.400Z,8.27
2018-12-05T03:36:04.045Z,9.33
2018-12-05T03:38:32.449Z,8.83
2018-12-05T03:41:00.985Z,9.87
2018-12-05T03:43:29.313Z,13.93
2018-12-05T03:45:57.817Z,10.03
2018-12-05T03:48:26.137Z,7.87
2018-12-05T03:50:54.485Z,9.87
2018-12-05T03:53:23.157Z,12.73
2018-12-05T03:58:30.438Z,8.10
2018-12-05T04:00:58.757Z,9.50
2018-12-05T04:03:27.038Z,7.70
2018-12-05T04:05:55.460Z,9.70
2018-12-05T04:08:23.885Z,9.27
2018-12-05T04:10:52.473Z,10.17
2018-12-05T04:13:20.843Z,8.43
2018-12-05T04:15:49.262Z,13.10
2018-12-05T04:18:17.779Z,7.50
2018-12-05T04:20:46.525Z,7.03
2018-12-05T04:23:15.194Z,9.63
2018-12-05T04:25:43.599Z,8.93
2018-12-05T04:28:11.945Z,9.00
2018-12-05T04:30:40.513Z,10.00
2018-12-05T04:33:08.819Z,10.93
2018-12-05T04:35:37.223Z,9.20
2018-12-05T04:38:05.668Z,8.97
2018-12-05T04:40:33.959Z,10.53
2018-12-05T04:43:02.337Z,11.80
2018-12-05T04:45:30.725Z,10.40
2018-12-05T04:47:59.518Z,8.47
2018-12-05T04:50:27.786Z,6.17
2018-12-05T04:52:56.067Z,8.20
2018-12-05T04:55:24.459Z,9.00
2018-12-05T04:57:53.103Z,13.33
2018-12-05T05:00:21.459Z,12.67
2018-12-05T05:02:49.784Z,9.20
2018-12-05T05:05:18.894Z,10.00
2018-12-05T05:07:47.288Z,9.23
2018-12-05T05:10:16.617Z,14.20
2018-12-05T05:12:45.385Z,12.37
2018-12-05T05:15:13.681Z,10.77
2018-12-05T05:17:41.935Z,15.00
2018-12-05T05:20:11.965Z,8.97
2018-12-05T05:22:40.480Z,11.20
2018-12-05T05:25:08.854Z,12.23
2018-12-05T05:27:37.249Z,9.70
2018-12-05T05:30:06.243Z,10.30
2018-12-05T05:32:35.540Z,8.37
2018-12-05T05:35:04.965Z,12.37
2018-12-05T05:37:33.317Z,10.70
2018-12-05T05:40:01.704Z,12.20
2018-12-05T05:42:30.487Z,13.07
2018-12-05T05:44:58.810Z,15.03
2018-12-05T05:47:27.144Z,12.83
2018-12-05T05:49:55.508Z,11.97
2018-12-05T05:52:23.914Z,11.17
2018-12-05T05:54:52.295Z,13.83
2018-12-05T05:57:20.768Z,11.03
2018-12-05T05:59:49.187Z,13.87
2018-12-05T06:02:17.853Z,11.10
2018-12-05T06:04:46.159Z,14.80
2018-12-05T06:07:14.592Z,13.63
2018-12-05T06:09:42.934Z,9.93
2018-12-05T06:12:11.860Z,10.33
2018-12-05T06:14:40.833Z,11.03
2018-12-05T06:17:09.495Z,11.50
2018-12-05T06:19:37.911Z,10.40
2018-12-05T06:22:06.361Z,11.73
2018-12-05T06:24:36.242Z,11.23
2018-12-05T06:27:04.741Z,12.17
2018-12-05T06:29:33.281Z,11.83
2018-12-05T06:32:01.571Z,13.70
2018-12-05T06:34:30.132Z,12.40
2018-12-05T06:36:58.679Z,14.33
2018-12-05T06:39:27.335Z,11.67
2018-12-05T06:41:55.881Z,14.53
2018-12-05T06:44:24.577Z,14.73
2018-12-05T06:46:53.159Z,13.40
2018-12-05T06:49:21.472Z,11.97
2018-12-05T06:51:49.865Z,21.30
2018-12-05T06:54:18.178Z,14.20
2018-12-05T06:56:46.572Z,13.77
2018-12-05T06:59:14.833Z,13.47
2018-12-05T07:01:43.327Z,11.50
2018-12-05T07:04:11.625Z,12.50
2018-12-05T07:06:40.100Z,10.07
2018-12-05T07:09:09.510Z,11.97
2018-12-05T07:11:37.876Z,11.13
2018-12-05T07:14:06.363Z,11.67
2018-12-05T07:16:35.151Z,7.57
2018-12-05T07:19:04.041Z,11.00
2018-12-05T07:21:32.413Z,10.33
2018-12-05T07:24:00.792Z,14.70
2018-12-05T07:26:29.097Z,11.03
2018-12-05T07:28:57.515Z,11.60
2018-12-05T07:31:25.999Z,11.33
2018-12-05T07:33:54.466Z,13.10
2018-12-05T07:36:22.816Z,12.00
2018-12-05T07:38:53.078Z,11.97
2018-12-05T07:41:21.551Z,13.90
2018-12-05T07:43:49.923Z,13.03
2018-12-05T07:46:18.361Z,13.40
2018-12-05T07:48:46.877Z,13.13
2018-12-05T07:51:15.289Z,34.67
2018-12-05T07:53:43.720Z,56.77
2018-12-05T07:56:12.180Z,47.40
2018-12-05T07:58:40.618Z,55.57
2018-12-05T08:01:09.138Z,57.43
2018-12-05T08:03:37.703Z,51.13
2018-12-05T08:06:06.077Z,35.03
2018-12-05T08:08:34.411Z,26.00
2018-12-05T08:11:04.707Z,20.30
2018-12-05T08:13:33.145Z,14.67
2018-12-05T08:16:02.869Z,13.93
2018-12-05T08:18:31.479Z,11.60
2018-12-05T08:21:00.061Z,15.03
2018-12-05T08:23:28.607Z,13.83
2018-12-05T08:25:57.129Z,15.50
2018-12-05T08:28:25.512Z,18.53
2018-12-05T08:30:53.937Z,15.77
2018-12-05T08:33:22.597Z,13.03
2018-12-05T08:35:51.083Z,12.50
2018-12-05T08:38:19.640Z,17.53
2018-12-05T08:40:48.654Z,19.60
2018-12-05T08:43:16.977Z,23.77
2018-12-05T08:45:45.564Z,14.87
2018-12-05T08:48:14.121Z,16.90
2018-12-05T08:50:42.710Z,18.77
2018-12-05T08:53:11.054Z,12.53
2018-12-05T08:55:39.593Z,15.47
2018-12-05T08:58:08.090Z,12.27
2018-12-05T09:00:38.615Z,13.47
2018-12-05T09:03:08.124Z,14.73
2018-12-05T09:05:36.630Z,11.73
2018-12-05T09:08:05.115Z,10.10
2018-12-05T09:10:33.598Z,13.47
2018-12-05T09:13:02.008Z,11.50
2018-12-05T09:15:30.412Z,11.50
2018-12-05T09:17:59.755Z,13.63
2018-12-05T09:20:28.087Z,10.83
2018-12-05T09:22:56.659Z,43.57
2018-12-05T09:25:25.949Z,21.63
2018-12-05T09:27:54.718Z,23.47
2018-12-05T09:30:23.125Z,38.50
2018-12-05T09:32:51.463Z,41.90
2018-12-05T09:35:19.745Z,24.77
2018-12-05T09:37:48.141Z,13.53
2018-12-05T09:40:17.051Z,35.00
2018-12-05T09:42:45.418Z,25.53
2018-12-05T09:45:14.975Z,13.00
2018-12-05T09:47:43.961Z,12.23
2018-12-05T09:50:12.485Z,17.60
2018-12-05T09:52:41.538Z,14.77
2018-12-05T09:55:09.857Z,12.87
2018-12-05T09:57:38.195Z,15.13
2018-12-05T10:00:08.723Z,13.67
2018-12-05T10:02:37.195Z,13.27
2018-12-05T10:05:07.573Z,10.47
2018-12-05T10:07:36.014Z,12.80
2018-12-05T10:10:05.395Z,10.77
2018-12-05T10:12:33.935Z,12.67
2018-12-05T10:15:02.411Z,8.80
2018-12-05T10:17:30.699Z,12.50
2018-12-05T10:19:58.976Z,8.07
2018-12-05T10:22:27.354Z,7.70
2018-12-05T10:24:55.858Z,14.77
2018-12-05T10:27:24.299Z,8.90
2018-12-05T10:29:52.616Z,10.93
2018-12-05T10:32:21.181Z,14.40
2018-12-05T10:34:49.585Z,9.03
2018-12-05T10:37:18.030Z,11.40
2018-12-05T10:39:46.397Z,13.53
2018-12-05T10:42:14.987Z,11.07
2018-12-05T10:44:43.459Z,12.63
2018-12-05T10:47:11.951Z,21.57
2018-12-05T10:49:40.435Z,32.70
2018-12-05T10:52:08.915Z,26.80
2018-12-05T10:54:37.361Z,12.53
2018-12-05T10:57:05.951Z,9.47
2018-12-05T11:02:50.620Z,10.97
2018-12-05T11:05:26.743Z,10.97
2018-12-05T11:08:58.926Z,13.40
2018-12-05T11:11:32.718Z,6.37
2018-12-05T11:14:06.821Z,11.07
2018-12-05T11:16:41.514Z,12.17
2018-12-05T11:19:15.606Z,11.17
2018-12-05T11:21:49.829Z,10.57
2018-12-05T11:24:23.792Z,18.40
2018-12-05T11:26:52.674Z,10.87
2018-12-05T11:29:21.124Z,10.33
2018-12-05T11:31:49.470Z,11.80
2018-12-05T11:34:17.968Z,7.73
2018-12-05T11:36:46.316Z,9.30
2018-12-05T11:39:14.680Z,8.13
2018-12-05T11:41:43.082Z,10.33
2018-12-05T11:44:11.544Z,10.33
2018-12-05T11:46:39.910Z,15.50
2018-12-05T11:49:08.577Z,6.87
2018-12-05T11:51:36.796Z,14.30
2018-12-05T11:54:05.359Z,10.57
2018-12-05T11:56:33.780Z,12.40
2018-12-05T11:59:02.298Z,8.13
2018-12-05T12:01:30.808Z,6.60
2018-12-05T12:03:59.325Z,6.80
2018-12-05T12:06:27.897Z,8.03
2018-12-05T12:08:56.331Z,6.97
2018-12-05T12:11:24.746Z,13.67
2018-12-05T12:13:53.234Z,11.67
2018-12-05T12:16:22.545Z,13.70
2018-12-05T12:18:51.104Z,20.27
2018-12-05T12:21:19.599Z,17.83
2018-12-05T12:23:48.022Z,13.10
2018-12-05T12:26:16.389Z,8.87
2018-12-05T12:28:45.305Z,11.23
2018-12-05T12:31:13.728Z,6.80
2018-12-05T12:33:42.124Z,10.70
2018-12-05T12:36:10.541Z,8.13
2018-12-05T12:38:40.537Z,8.77
2018-12-05T12:41:09.332Z,7.60
2018-12-05T12:43:37.934Z,9.57
2018-12-05T12:46:06.501Z,12.57
2018-12-05T12:48:35.538Z,9.17
2018-12-05T12:51:04.301Z,8.87
2018-12-05T12:53:32.835Z,13.70
2018-12-05T12:56:01.381Z,22.10
2018-12-05T12:58:29.787Z,15.27
2018-12-05T13:00:58.280Z,11.53
2018-12-05T13:03:26.737Z,8.60
2018-12-05T13:05:55.361Z,9.73
2018-12-05T13:08:23.927Z,6.33
2018-12-05T13:10:52.699Z,8.03
2018-12-05T13:13:21.398Z,12.67
2018-12-05T13:15:50.093Z,11.80
2018-12-05T13:18:19.723Z,8.43
2018-12-05T13:20:49.507Z,8.77
2018-12-05T13:23:18.608Z,14.43
2018-12-05T13:25:47.162Z,10.07
2018-12-05T13:28:15.765Z,7.37
2018-12-05T13:30:44.866Z,10.67
2018-12-05T13:33:13.427Z,10.10
2018-12-05T13:35:42.058Z,10.80
2018-12-05T13:38:10.620Z,7.37
2018-12-05T13:40:39.833Z,15.90
2018-12-05T13:43:08.288Z,18.03
2018-12-05T13:45:37.276Z,17.33
2018-12-05T13:48:05.774Z,31.03
2018-12-05T13:50:34.334Z,19.53
2018-12-05T13:53:02.574Z,14.60
2018-12-05T13:55:31.135Z,9.90
2018-12-05T13:57:59.852Z,12.93
2018-12-05T14:00:28.472Z,9.27
2018-12-05T14:02:57.014Z,10.13
2018-12-05T14:05:25.504Z,11.83
2018-12-05T14:07:53.926Z,11.47
2018-12-05T14:10:23.504Z,11.87
2018-12-05T14:12:55.035Z,12.57
2018-12-05T14:15:24.212Z,12.87
2018-12-05T14:17:52.778Z,11.37
2018-12-05T14:20:21.930Z,10.93
2018-12-05T14:22:50.290Z,14.33
2018-12-05T14:25:18.957Z,16.00
2018-12-05T14:27:47.607Z,10.90
2018-12-05T14:30:17.137Z,13.37
2018-12-05T14:32:46.485Z,8.23
2018-12-05T14:35:14.884Z,10.40
2018-12-05T14:37:43.285Z,9.93
2018-12-05T14:40:12.291Z,15.83
2018-12-05T14:42:40.726Z,10.20
2018-12-05T14:45:09.298Z,12.97
2018-12-05T14:47:37.830Z,9.00
2018-12-05T14:50:06.681Z,13.13
2018-12-05T14:52:35.062Z,9.17
2018-12-05T14:55:05.406Z,12.50
2018-12-05T14:57:34.243Z,12.33
2018-12-05T15:00:02.615Z,10.20
2018-12-05T15:02:30.895Z,12.23
2018-12-05T15:04:59.148Z,13.37
2018-12-05T15:07:27.525Z,15.33
2018-12-05T15:09:56.034Z,8.73
2018-12-05T15:12:24.596Z,7.90
2018-12-05T15:14:53.164Z,9.17
2018-12-05T15:17:22.700Z,11.87
2018-12-05T15:19:51.355Z,13.80
2018-12-05T15:22:19.927Z,15.47
2018-12-05T15:24:50.487Z,22.57
2018-12-05T15:27:18.957Z,21.03
2018-12-05T15:29:47.800Z,12.90
2018-12-05T15:32:16.088Z,18.30
2018-12-05T15:34:44.492Z,19.90
2018-12-05T15:37:12.962Z,23.50
2018-12-05T15:39:41.366Z,32.00
2018-12-05T15:42:09.901Z,17.77
2018-12-05T15:44:38.478Z,13.67
2018-12-05T15:47:06.963Z,12.27
2018-12-05T15:49:35.282Z,13.93
2018-12-05T15:52:04.882Z,10.77
2018-12-05T15:54:33.494Z,9.47
2018-12-05T15:57:09.525Z,11.17
2018-12-05T15:59:32.271Z,19.97
2018-12-05T16:02:01.408Z,11.10
2018-12-05T16:04:29.860Z,13.00
2018-12-05T16:06:58.575Z,12.67
2018-12-05T16:09:26.828Z,11.70
2018-12-05T16:11:55.538Z,8.33
2018-12-05T16:14:24.007Z,11.93
2018-12-05T16:16:52.434Z,14.07
2018-12-05T16:19:20.862Z,11.67
2018-12-05T16:21:49.405Z,10.87
2018-12-05T16:24:17.768Z,11.13
2018-12-05T16:26:46.202Z,14.67
2018-12-05T16:29:14.548Z,12.70
2018-12-05T16:31:42.887Z,11.93
2018-12-05T16:34:11.285Z,20.63
2018-12-05T16:36:39.612Z,20.90
2018-12-05T16:39:09.219Z,16.83
2018-12-05T16:41:37.760Z,12.47
2018-12-05T16:44:12.696Z,14.43
2018-12-05T16:46:36.677Z,10.30
2018-12-05T16:49:05.377Z,9.93
2018-12-05T16:51:34.420Z,12.93
2018-12-05T16:54:02.934Z,10.83
2018-12-05T16:56:31.458Z,31.87
2018-12-05T16:58:59.710Z,15.03
2018-12-05T17:01:28.234Z,9.93
2018-12-05T17:03:56.525Z,16.17
2018-12-05T17:06:24.905Z,14.57
2018-12-05T17:08:53.471Z,10.20
2018-12-05T17:11:22.774Z,11.10
2018-12-05T17:13:51.670Z,13.40
2018-12-05T17:16:20.862Z,14.53
2018-12-05T17:18:49.393Z,8.90
2018-12-05T17:21:17.715Z,17.47
2018-12-05T17:23:46.406Z,13.37
2018-12-05T17:26:14.893Z,12.30
2018-12-05T17:28:43.661Z,14.87
2018-12-05T17:31:12.224Z,10.80
2018-12-05T17:33:44.023Z,11.20
2018-12-05T17:36:12.552Z,13.63
2018-12-05T17:38:40.880Z,11.50
2018-12-05T17:41:09.337Z,11.03
2018-12-05T17:43:37.745Z,11.47
2018-12-05T17:46:06.226Z,11.17
2018-12-05T17:51:22.324Z,14.60
2018-12-05T17:53:50.847Z,26.57
2018-12-05T17:56:19.341Z,28.60
2018-12-05T17:58:47.765Z,29.43
2018-12-05T18:01:16.058Z,15.57
2018-12-05T18:03:44.637Z,12.83
2018-12-05T18:06:14.168Z,14.03
2018-12-05T18:08:42.932Z,14.37
2018-12-05T18:11:11.434Z,14.53
2018-12-05T18:13:39.986Z,17.90
2018-12-05T18:16:09.057Z,18.83
2018-12-05T18:18:41.973Z,17.73
2018-12-05T18:21:10.657Z,15.63
2018-12-05T18:23:39.598Z,13.30
2018-12-05T18:26:10.353Z,16.33
2018-12-05T18:28:38.771Z,11.67
2018-12-05T18:31:07.157Z,13.17
2018-12-05T18:33:35.935Z,18.33
2018-12-05T18:36:04.435Z,19.40
2018-12-05T18:38:32.722Z,16.67
2018-12-05T18:41:01.271Z,15.03
2018-12-05T18:43:29.821Z,16.20
2018-12-05T18:45:58.429Z,11.57
2018-12-05T18:48:27.246Z,16.70
2018-12-05T18:50:55.682Z,14.57
2018-12-05T18:53:24.160Z,13.30
2018-12-05T18:55:52.472Z,17.00
2018-12-05T18:58:20.886Z,20.87
2018-12-05T19:00:49.684Z,18.93
2018-12-05T19:03:18.219Z,15.50
2018-12-05T19:05:46.584Z,15.30
2018-12-05T19:08:15.318Z,15.03
2018-12-05T19:10:43.846Z,12.33
2018-12-05T19:13:13.133Z,17.47
2018-12-05T19:15:41.876Z,11.00
2018-12-05T19:18:10.732Z,11.73
2018-12-05T19:20:39.172Z,15.93
2018-12-05T19:23:07.663Z,13.27
2018-12-05T19:25:36.099Z,13.30
2018-12-05T19:28:04.662Z,14.70
2018-12-05T19:30:33.164Z,11.43
2018-12-05T19:33:01.662Z,14.67
2018-12-05T19:35:30.113Z,18.93
2018-12-05T19:37:59.420Z,23.17
2018-12-05T19:40:27.876Z,33.73
2018-12-05T19:42:56.392Z,20.87
2018-12-05T19:45:25.658Z,14.97
2018-12-05T19:47:54.104Z,19.93
2018-12-05T19:50:23.004Z,27.30
2018-12-05T19:52:51.444Z,25.03
2018-12-05T19:55:20.396Z,19.33
2018-12-05T19:57:48.876Z,17.37
2018-12-05T20:00:22.879Z,20.50
2018-12-05T20:02:51.548Z,12.23
2018-12-05T20:05:20.775Z,14.73
2018-12-05T20:07:50.279Z,10.10
2018-12-05T20:10:18.701Z,17.60
2018-12-05T20:12:48.715Z,23.80
2018-12-05T20:15:17.514Z,18.07
2018-12-05T20:17:46.097Z,11.60
2018-12-05T20:20:18.058Z,14.57
2018-12-05T20:22:47.160Z,11.67
2018-12-05T20:25:16.530Z,14.10
2018-12-05T20:27:45.367Z,15.67
2018-12-05T20:30:20.412Z,11.53
2018-12-05T20:32:49.040Z,9.80
2018-12-05T20:35:18.497Z,12.00
2018-12-05T20:37:48.462Z,13.70
2018-12-05T20:40:16.822Z,12.43
2018-12-05T20:42:45.455Z,21.00
2018-12-05T20:45:14.184Z,14.17
2018-12-05T20:47:50.194Z,11.93
2018-12-05T20:50:20.055Z,9.07
2018-12-05T20:52:49.161Z,11.27
2018-12-05T20:55:18.205Z,12.53
2018-12-05T20:57:47.386Z,12.90
2018-12-05T21:00:16.243Z,27.60
2018-12-05T21:02:47.289Z,17.70
2018-12-05T21:05:17.163Z,19.13
2018-12-05T21:07:46.047Z,14.50
2018-12-05T21:10:16.129Z,15.90
2018-12-05T21:12:45.796Z,15.90
2018-12-05T21:15:16.495Z,22.50
2018-12-05T21:17:46.188Z,27.60
2018-12-05T21:20:14.982Z,18.93
2018-12-05T21:22:47.155Z,14.77
2018-12-05T21:25:16.367Z,15.77
2018-12-05T21:27:45.155Z,13.83
2018-12-05T21:30:16.888Z,9.03
2018-12-05T21:32:45.615Z,16.37
2018-12-05T21:35:14.242Z,12.90
2018-12-05T21:37:42.896Z,13.13
2018-12-05T21:40:11.448Z,20.63
2018-12-05T21:42:40.423Z,17.13
2018-12-05T21:45:09.137Z,15.73
2018-12-05T21:47:44.489Z,12.23
2018-12-05T21:50:13.857Z,15.87
2018-12-05T21:52:44.604Z,16.30
2018-12-05T21:55:13.071Z,14.83
2018-12-05T21:57:42.169Z,16.80
2018-12-05T22:00:13.296Z,10.20
2018-12-05T22:02:42.237Z,11.20
2018-12-05T22:05:11.426Z,13.17
2018-12-05T22:07:39.965Z,9.97
2018-12-05T22:10:09.923Z,11.23
2018-12-05T22:12:38.781Z,11.97
2018-12-05T22:15:07.596Z,17.57
2018-12-05T22:17:36.279Z,15.70
2018-12-05T22:20:07.080Z,9.37
2018-12-05T22:22:37.236Z,8.87
2018-12-05T22:25:05.916Z,10.50
2018-12-05T22:27:34.628Z,10.30
2018-12-05T22:30:03.812Z,12.30
2018-12-05T22:32:32.305Z,10.03
2018-12-05T22:35:00.765Z,10.47
2018-12-05T22:37:29.222Z,11.10
2018-12-05T22:39:57.869Z,11.17
2018-12-05T22:42:26.634Z,10.93
2018-12-05T22:44:55.718Z,12.17
2018-12-05T22:47:24.448Z,11.10
2018-12-05T22:49:52.958Z,11.97
2018-12-05T22:52:21.408Z,11.87
2018-12-05T22:54:49.783Z,10.87
2018-12-05T22:57:18.134Z,8.77
2018-12-05T22:59:46.545Z,15.23
2018-12-05T23:02:15.131Z,13.33
2018-12-05T23:04:43.664Z,11.53
2018-12-05T23:07:12.192Z,10.93
2018-12-05T23:09:40.579Z,9.83
2018-12-05T23:12:09.018Z,8.83
2018-12-05T23:14:37.540Z,11.73
2018-12-05T23:17:06.020Z,12.83
2018-12-05T23:19:34.337Z,15.23
2018-12-05T23:22:02.971Z,8.90
2018-12-05T23:24:31.414Z,10.13
2018-12-05T23:27:00.071Z,9.20
2018-12-05T23:29:28.566Z,10.90
2018-12-05T23:31:56.998Z,12.83
2018-12-05T23:34:25.382Z,9.87
2018-12-05T23:37:00.453Z,14.07
2018-12-05T23:39:28.860Z,10.33
2018-12-05T23:41:57.302Z,9.77
2018-12-05T23:44:25.629Z,12.10
2018-12-05T23:46:54.028Z,10.27
2018-12-05T23:49:22.438Z,11.43
2018-12-05T23:51:50.824Z,12.07
2018-12-05T23:54:19.199Z,10.13
2018-12-05T23:56:47.488Z,10.97
2018-12-05T23:59:15.770Z,11.80
